createdAt,value
2023-05-15T00:00:03.192Z,100751.72
2023-05-15T00:04:02.107Z,100751.93000000001
2023-05-15T00:08:02.100Z,100751.54
2023-05-15T00:12:02.244Z,100753.99
2023-05-15T00:16:02.205Z,100754.16
2023-05-15T00:20:03.847Z,100751.0
2023-05-15T00:24:02.254Z,100743.87000000001
2023-05-15T00:28:02.450Z,100745.39
2023-05-15T00:36:02.473Z,100736.13
2023-05-15T00:44:02.866Z,100742.21
2023-05-15T00:48:03.148Z,100744.36
2023-05-15T00:52:03.531Z,100747.05
2023-05-15T00:56:04.810Z,100748.46
2023-05-15T01:00:03.830Z,100748.95
2023-05-15T01:04:03.269Z,100753.05
2023-05-15T01:08:12.162Z,100753.88
2023-05-15T01:12:06.403Z,100747.99
2023-05-15T01:16:03.338Z,100747.2
2023-05-15T01:20:08.335Z,100753.89
2023-05-15T01:24:15.390Z,100756.09
2023-05-15T01:28:07.200Z,100761.83
2023-05-15T01:32:08.212Z,100761.36
2023-05-15T01:36:08.558Z,100753.17
2023-05-15T01:40:06.610Z,100751.36
2023-05-15T01:44:06.483Z,100755.25
2023-05-15T01:48:06.661Z,100755.64
2023-05-15T01:52:07.671Z,100761.33
2023-05-15T01:56:05.119Z,100761.53
2023-05-15T02:00:03.144Z,100757.78
2023-05-15T02:04:03.421Z,100749.77
2023-05-15T02:08:03.627Z,100747.85
2023-05-15T02:12:03.052Z,100754.24
2023-05-15T02:16:02.871Z,100759.12
2023-05-15T02:24:03.173Z,100758.23000000001
2023-05-15T02:28:08.568Z,100761.47
2023-05-15T02:32:10.766Z,100767.40999999999
2023-05-15T02:36:06.922Z,100770.86
2023-05-15T02:40:06.046Z,100771.12
2023-05-15T02:48:04.367Z,100783.59
2023-05-15T02:52:02.747Z,100785.15
2023-05-15T02:56:02.776Z,100785.36
2023-05-15T03:00:04.299Z,100789.94
2023-05-15T03:04:02.902Z,100787.22
2023-05-15T03:08:02.630Z,100787.35
2023-05-15T03:12:03.052Z,100786.53
2023-05-15T03:20:03.988Z,100793.52
2023-05-15T03:24:02.893Z,100794.94
2023-05-15T03:28:02.884Z,100797.08
2023-05-15T03:32:02.641Z,100802.73
2023-05-15T03:36:04.197Z,100802.81
2023-05-15T03:40:03.834Z,100811.21
2023-05-15T03:44:02.917Z,100817.72
2023-05-15T03:48:03.192Z,100819.37000000001
2023-05-15T03:52:03.100Z,100822.55
2023-05-15T03:56:02.847Z,100828.95999999999
2023-05-15T04:00:08.952Z,100829.71
2023-05-15T04:04:02.855Z,100837.91
2023-05-15T04:08:02.923Z,100836.58
2023-05-15T04:12:03.091Z,100834.75
2023-05-15T04:16:03.323Z,100835.44
2023-05-15T04:20:04.846Z,100839.4
2023-05-15T04:24:03.234Z,100840.09
2023-05-15T04:32:03.159Z,100838.03
2023-05-15T04:40:03.246Z,100848.64
2023-05-15T04:44:02.830Z,100852.17
2023-05-15T04:48:03.527Z,100855.81
2023-05-15T04:52:03.559Z,100860.14
2023-05-15T05:00:04.880Z,100866.49
2023-05-15T05:12:03.314Z,100874.84
2023-05-15T05:16:03.232Z,100876.78
2023-05-15T05:20:03.822Z,100875.09999999999
2023-05-15T05:24:03.016Z,100875.08
2023-05-15T05:28:03.218Z,100878.59
2023-05-15T05:32:03.255Z,100878.89
2023-05-15T05:36:04.199Z,100886.53
2023-05-15T05:40:05.658Z,100879.90999999999
2023-05-15T05:44:03.375Z,100881.44
2023-05-15T05:48:03.408Z,100886.47
2023-05-15T05:52:05.144Z,100894.67
2023-05-15T05:56:03.098Z,100898.53
2023-05-15T06:00:06.071Z,100909.19
2023-05-15T06:04:03.345Z,100911.01999999999
2023-05-15T06:08:03.452Z,100913.9
2023-05-15T06:12:03.877Z,100920.81
2023-05-15T06:16:04.153Z,100923.05
2023-05-15T06:20:05.975Z,100925.76000000001
2023-05-15T06:24:03.575Z,100924.61
2023-05-15T06:28:03.387Z,100935.02
2023-05-15T06:32:03.517Z,100936.77
2023-05-15T06:36:03.348Z,100935.41
2023-05-15T06:40:05.060Z,100931.88
2023-05-15T06:44:03.662Z,100934.88
2023-05-15T06:48:03.659Z,100943.01000000001
2023-05-15T06:52:03.505Z,100949.65999999999
2023-05-15T06:56:03.687Z,100954.16
2023-05-15T07:00:04.621Z,100952.8
2023-05-15T07:04:04.100Z,100958.62
2023-05-15T07:08:03.394Z,100957.4
2023-05-15T07:12:03.763Z,100954.06
2023-05-15T07:16:03.587Z,100953.23
2023-05-15T07:20:05.220Z,100959.66
2023-05-15T07:24:03.544Z,100961.86
2023-05-15T07:28:03.789Z,100958.87
2023-05-15T07:32:03.836Z,100967.55
2023-05-15T07:36:03.792Z,100966.97
2023-05-15T07:40:03.935Z,100956.28
2023-05-15T07:44:03.523Z,100959.52
2023-05-15T07:52:03.618Z,100964.85
2023-05-15T07:56:03.994Z,100968.92
2023-05-15T08:00:09.267Z,100975.14
2023-05-15T08:04:06.787Z,100971.37
2023-05-15T08:08:03.463Z,100977.87
2023-05-15T08:12:15.690Z,100988.62000000001
2023-05-15T08:16:03.952Z,100983.61
2023-05-15T08:20:04.615Z,100985.82
2023-05-15T08:24:04.295Z,100988.12000000001
2023-05-15T08:28:03.941Z,100985.29
2023-05-15T08:32:04.983Z,100982.78
2023-05-15T08:36:04.377Z,100994.08
2023-05-15T08:40:04.557Z,100993.20999999999
2023-05-15T08:44:04.146Z,100996.29
2023-05-15T08:48:09.602Z,100991.52
2023-05-15T08:52:04.230Z,100991.38
2023-05-15T08:56:04.422Z,100992.86
2023-05-15T09:04:03.972Z,100991.41
2023-05-15T09:08:05.772Z,100985.16
2023-05-15T09:12:06.154Z,100989.73
2023-05-15T09:16:03.967Z,100998.46
2023-05-15T09:20:05.163Z,101006.11
2023-05-15T09:24:15.853Z,100998.27
2023-05-15T09:28:04.918Z,101000.42
2023-05-15T09:32:06.528Z,100999.27
2023-05-15T09:36:06.221Z,101005.24
2023-05-15T09:40:08.524Z,100990.91
2023-05-15T09:44:03.964Z,100992.61
2023-05-15T09:48:04.597Z,101006.09
2023-05-15T09:52:07.054Z,101003.94
2023-05-15T09:56:03.858Z,101001.29
2023-05-15T10:00:10.825Z,100999.17
2023-05-15T10:04:05.713Z,101011.77
2023-05-15T10:08:04.409Z,101008.45000000001
2023-05-15T10:12:07.250Z,101006.02
2023-05-15T10:16:04.963Z,101006.12999999999
2023-05-15T10:20:06.031Z,101008.48
2023-05-15T10:24:05.051Z,101003.0
2023-05-15T10:28:08.072Z,101000.09
2023-05-15T10:32:04.236Z,101006.45
2023-05-15T10:36:05.369Z,101012.77
2023-05-15T10:40:06.239Z,101013.99
2023-05-15T10:44:04.705Z,101018.91
2023-05-15T10:48:06.615Z,101020.04
2023-05-15T10:52:04.298Z,101024.97
2023-05-15T10:56:04.855Z,101025.03
2023-05-15T11:00:24.162Z,101034.63
2023-05-15T11:04:07.804Z,101033.03
2023-05-15T11:08:26.761Z,101033.74
2023-05-15T11:16:04.433Z,101042.11
2023-05-15T11:20:04.878Z,101050.59
2023-05-15T11:24:04.561Z,101043.62999999999
2023-05-15T11:28:04.513Z,101046.98
2023-05-15T11:32:23.829Z,101043.95
2023-05-15T11:36:04.631Z,101045.26
2023-05-15T11:40:06.166Z,101041.85
2023-05-15T11:44:04.062Z,101044.22
2023-05-15T11:48:06.097Z,101046.06
2023-05-15T11:52:05.349Z,101049.69
2023-05-15T11:56:33.015Z,101047.27
2023-05-15T12:00:05.787Z,101050.05
2023-05-15T12:04:11.256Z,101055.45
2023-05-15T12:08:08.182Z,101052.34
2023-05-15T12:12:05.319Z,101050.68
2023-05-15T12:16:04.610Z,101044.32
2023-05-15T12:20:07.922Z,101054.47
2023-05-15T12:24:08.268Z,101044.65
2023-05-15T12:28:05.181Z,101053.36
2023-05-15T12:32:05.451Z,101055.16
2023-05-15T12:36:05.423Z,101064.01
2023-05-15T12:40:09.236Z,101056.59000000001
2023-05-15T12:44:04.744Z,101050.92
2023-05-15T12:48:06.510Z,101051.33
2023-05-15T12:52:06.957Z,101045.43
2023-05-15T12:56:04.997Z,101054.24
2023-05-15T13:00:05.125Z,101061.1
2023-05-15T13:04:04.272Z,101066.67
2023-05-15T13:08:06.503Z,101063.87
2023-05-15T13:12:04.328Z,101065.49
2023-05-15T13:16:04.828Z,101065.36
2023-05-15T13:20:05.165Z,101055.86
2023-05-15T13:24:05.473Z,101047.86
2023-05-15T13:28:05.830Z,101059.74
2023-05-15T13:32:05.793Z,101066.81999999999
2023-05-15T13:36:05.044Z,101063.31
2023-05-15T13:40:08.892Z,101062.89
2023-05-15T13:44:05.409Z,101060.69
2023-05-15T13:48:04.720Z,101071.12
2023-05-15T13:52:04.624Z,101074.61
2023-05-15T13:56:04.860Z,101071.06
2023-05-15T14:00:06.670Z,101074.3
2023-05-15T14:04:04.617Z,101080.35
2023-05-15T14:08:04.825Z,101077.81
2023-05-15T14:12:04.652Z,101072.6
2023-05-15T14:16:04.905Z,101068.42
2023-05-15T14:20:05.894Z,101069.76
2023-05-15T14:24:04.797Z,101072.32
2023-05-15T14:28:04.727Z,101085.86
2023-05-15T14:32:05.003Z,101089.81
2023-05-15T14:36:04.978Z,101092.44
2023-05-15T14:40:05.901Z,101097.85
2023-05-15T14:44:04.877Z,101100.92
2023-05-15T14:48:04.732Z,101092.76999999999
2023-05-15T14:52:07.205Z,101089.84
2023-05-15T14:56:05.075Z,101092.88
2023-05-15T15:00:06.624Z,101091.22
2023-05-15T15:04:05.085Z,101094.47
2023-05-15T15:08:06.741Z,101095.48
2023-05-15T15:12:05.065Z,101111.03
2023-05-15T15:16:07.180Z,101108.09000000001
2023-05-15T15:20:05.385Z,101108.7
2023-05-15T15:24:05.238Z,101104.97
2023-05-15T15:28:04.773Z,101115.19
2023-05-15T15:32:05.034Z,101125.84000000001
2023-05-15T15:36:05.283Z,101126.03
2023-05-15T15:40:07.202Z,101125.9
2023-05-15T15:44:04.715Z,101127.33
2023-05-15T15:48:04.986Z,101128.58
2023-05-15T15:50:26.780Z,101128.58
2023-05-15T15:52:04.894Z,101122.14
2023-05-15T16:00:07.286Z,101121.0
2023-05-15T16:04:05.123Z,101123.29
2023-05-15T16:08:04.899Z,101130.90999999999
2023-05-15T16:16:05.041Z,101143.47
2023-05-15T16:20:05.403Z,101148.41
2023-05-15T16:24:05.387Z,101145.34999999999
2023-05-15T16:28:04.786Z,101142.86
2023-05-15T16:32:05.469Z,101143.02
2023-05-15T16:36:05.102Z,101143.84
2023-05-15T16:40:06.392Z,101143.66
2023-05-15T16:44:09.724Z,101150.95
2023-05-15T16:48:05.199Z,101149.13
2023-05-15T16:52:05.178Z,101159.53
2023-05-15T16:56:05.661Z,101162.92
2023-05-15T17:00:06.562Z,101161.32
2023-05-15T17:04:05.468Z,101156.89
2023-05-15T17:08:05.169Z,101160.22
2023-05-15T17:12:05.450Z,101160.05
2023-05-15T17:16:05.903Z,101162.77
2023-05-15T17:20:06.708Z,101162.27
2023-05-15T17:24:05.195Z,101166.24
2023-05-15T17:28:05.062Z,101166.49
2023-05-15T17:32:06.403Z,101169.17
2023-05-15T17:36:05.305Z,101166.67
2023-05-15T17:40:06.924Z,101179.31999999999
2023-05-15T17:44:05.294Z,101177.94
2023-05-15T17:48:06.400Z,101187.98000000001
2023-05-15T17:52:06.632Z,101194.98
2023-05-15T17:56:05.375Z,101197.27
2023-05-15T18:00:06.562Z,101201.44
2023-05-15T18:04:05.093Z,101207.0
2023-05-15T18:08:09.411Z,101212.15999999999
2023-05-15T18:12:05.692Z,101215.56
2023-05-15T18:16:05.766Z,101216.81999999999
2023-05-15T18:20:06.082Z,101224.3
2023-05-15T18:24:05.733Z,101225.40000000001
2023-05-15T18:28:05.237Z,101227.01
2023-05-15T18:32:05.682Z,101230.95
2023-05-15T18:36:07.613Z,101227.29000000001
2023-05-15T18:40:05.841Z,101237.0
2023-05-15T18:44:05.164Z,101238.95
2023-05-15T18:48:06.181Z,101246.44
2023-05-15T18:52:05.617Z,101241.94
2023-05-15T18:56:05.316Z,101244.34
2023-05-15T19:00:07.057Z,101248.36
2023-05-15T19:04:06.186Z,101250.66
2023-05-15T19:08:06.125Z,101254.42
2023-05-15T19:12:05.851Z,101258.51
2023-05-15T19:16:06.569Z,101259.58
2023-05-15T19:20:07.614Z,101267.07
2023-05-15T19:24:05.500Z,101272.45
2023-05-15T19:28:05.639Z,101274.91
2023-05-15T19:32:06.147Z,101278.48
2023-05-15T19:36:06.442Z,101278.72
2023-05-15T19:40:06.363Z,101283.56999999999
2023-05-15T19:44:07.238Z,101288.87
2023-05-15T19:48:05.475Z,101291.44
2023-05-15T19:52:06.494Z,101291.63
2023-05-15T19:56:05.642Z,101296.19
2023-05-15T20:00:06.998Z,101300.98000000001
2023-05-15T20:04:05.576Z,101307.83
2023-05-15T20:08:05.981Z,101312.29
2023-05-15T20:12:06.022Z,101319.31
2023-05-15T20:16:09.248Z,101319.17
2023-05-15T20:20:35.287Z,101322.02
2023-05-15T20:24:06.295Z,101326.26000000001
2023-05-15T20:28:05.594Z,101331.94
2023-05-15T20:32:06.203Z,101332.67
2023-05-15T20:36:05.690Z,101335.79999999999
2023-05-15T20:40:07.208Z,101334.72
2023-05-15T20:44:05.613Z,101334.79999999999
2023-05-15T20:48:07.614Z,101332.62
2023-05-15T20:52:05.924Z,101339.33
2023-05-15T20:56:06.042Z,101344.44
2023-05-15T21:00:07.225Z,101348.11
2023-05-15T21:04:06.337Z,101353.39
2023-05-15T21:08:05.741Z,101356.5
2023-05-15T21:12:06.580Z,101362.84000000001
2023-05-15T21:16:06.395Z,101359.84
2023-05-15T21:20:06.842Z,101359.22
2023-05-15T21:24:06.227Z,101354.81999999999
2023-05-15T21:28:06.686Z,101357.34
2023-05-15T21:32:06.953Z,101361.32
2023-05-15T21:36:06.381Z,101368.19
2023-05-15T21:40:06.395Z,101369.12
2023-05-15T21:44:05.961Z,101369.98
2023-05-15T21:48:05.791Z,101370.93
2023-05-15T21:52:05.782Z,101372.97
2023-05-15T21:56:06.660Z,101371.92
2023-05-15T22:00:07.530Z,101384.28
2023-05-15T22:04:05.783Z,101388.22
2023-05-15T22:08:05.976Z,101394.64
2023-05-15T22:12:06.003Z,101391.45999999999
2023-05-15T22:16:06.114Z,101395.29
2023-05-15T22:20:10.259Z,101398.72
2023-05-15T22:24:06.226Z,101401.9
2023-05-15T22:28:06.092Z,101402.73
2023-05-15T22:32:06.274Z,101407.45
2023-05-15T22:36:05.986Z,101410.25
2023-05-15T22:40:07.726Z,101415.34
2023-05-15T22:44:05.979Z,101410.67
2023-05-15T22:48:06.224Z,101411.91
2023-05-15T22:56:06.792Z,101416.5
2023-05-15T23:00:07.185Z,101412.72
2023-05-15T23:04:06.178Z,101421.88
2023-05-15T23:08:25.795Z,101420.42
2023-05-15T23:12:06.852Z,101419.02
2023-05-15T23:20:09.390Z,101414.59
2023-05-15T23:24:06.051Z,101411.21
2023-05-15T23:28:06.219Z,101411.15999999999
2023-05-15T23:32:06.433Z,101411.55
2023-05-15T23:36:06.469Z,101411.65
2023-05-15T23:40:06.737Z,101412.01999999999
2023-05-15T23:44:06.393Z,101413.94
2023-05-15T23:48:06.328Z,101409.91
2023-05-15T23:52:06.565Z,101410.43
2023-05-15T23:56:07.312Z,101416.17
